Time;durP1;ratioP1;P1;durP2;ratioP2;P2;SDS_P1;SDS_P2;PMS_P1;PMS_P2;Temp;Humidity;BMP_temperature;BMP_pressure;BME280_temperature;BME280_humidity;BME280_pressure;Samples;Min_cycle;Max_cycle;Signal;HPM_P1;HPM_P2
2022/10/13 00:00:33;;;;;;;11.13;4.40;;;;;;;10.94;89.47;100580.63;5054801;28;20032;-83
2022/10/13 00:03:00;;;;;;;16.00;4.95;;;;;;;10.84;90.01;100572.78;5055065;28;20270;-83
2022/10/13 00:05:26;;;;;;;10.27;4.70;;;;;;;10.88;89.84;100575.66;5054773;28;20075;-83
2022/10/13 00:07:51;;;;;;;10.75;4.68;;;;;;;10.82;89.93;100566.88;5054643;28;20530;-83
2022/10/13 00:10:17;;;;;;;8.33;3.53;;;;;;;10.78;90.15;100564.00;5054348;28;20044;-83
2022/10/13 00:12:42;;;;;;;9.10;3.83;;;;;;;10.80;90.25;100569.94;5053061;28;20025;-81
2022/10/13 00:15:08;;;;;;;12.38;5.07;;;;;;;10.74;90.56;100573.13;5052998;28;20499;-83
2022/10/13 00:17:36;;;;;;;;;;;;;;;10.70;90.72;100570.25;5054318;28;20033;-80
2022/10/13 00:20:04;;;;;;;9.32;3.63;;;;;;;10.68;91.03;100569.00;5053671;28;19948;-81
2022/10/13 00:22:29;;;;;;;15.45;5.15;;;;;;;10.70;90.75;100567.53;5054662;28;20027;-83
2022/10/13 00:24:54;;;;;;;11.30;4.87;;;;;;;10.68;91.18;100558.09;5053364;28;20021;-83
2022/10/13 00:27:20;;;;;;;10.30;4.67;;;;;;;10.73;90.37;100558.72;5054404;28;20337;-84
2022/10/13 00:29:46;;;;;;;7.23;3.57;;;;;;;10.67;90.73;100557.31;5054129;28;20477;-84
2022/10/13 00:32:12;;;;;;;10.43;4.57;;;;;;;10.60;91.11;100556.22;5053935;28;20837;-84
2022/10/13 00:34:37;;;;;;;11.40;4.23;;;;;;;10.57;91.47;100554.09;5052804;28;20025;-83
2022/10/13 00:37:03;;;;;;;9.43;4.43;;;;;;;10.49;91.80;100561.19;5052580;28;20025;-83
2022/10/13 00:39:29;;;;;;;12.48;5.05;;;;;;;10.48;91.63;100554.94;5053847;28;20037;-82
2022/10/13 00:41:56;;;;;;;9.23;4.03;;;;;;;10.55;91.60;100557.97;5053851;28;20029;-82
2022/10/13 00:44:59;;;;;;;14.25;4.80;;;;;;;10.50;91.74;100558.13;5054170;28;20033;-83
2022/10/13 00:47:34;;;;;;;8.55;3.75;;;;;;;10.46;91.88;100557.19;5053796;28;20025;-82
2022/10/13 00:50:00;;;;;;;12.57;4.95;;;;;;;10.51;91.98;100548.03;5054138;28;20028;-81
2022/10/13 00:52:26;;;;;;;11.45;4.93;;;;;;;10.48;92.29;100549.50;5054013;28;20025;-82
2022/10/13 00:54:54;;;;;;;10.90;4.85;;;;;;;10.45;92.35;100544.72;5053586;28;20404;-83
2022/10/13 00:57:20;;;;;;;12.27;5.10;;;;;;;10.43;92.68;100546.16;5051975;28;20057;-82
2022/10/13 00:59:47;;;;;;;13.00;4.38;;;;;;;10.49;92.37;100551.09;5051999;28;20029;-81
2022/10/13 01:02:12;;;;;;;10.40;4.20;;;;;;;10.46;92.49;100550.94;5052259;28;20028;-81
2022/10/13 01:04:44;;;;;;;12.63;4.38;;;;;;;10.46;92.64;100540.84;5053026;28;20024;-82
2022/10/13 01:07:10;;;;;;;9.45;3.60;;;;;;;10.50;92.65;100541.00;5048009;28;20124;-83
2022/10/13 01:09:41;;;;;;;11.35;4.40;;;;;;;10.49;92.74;100532.03;5035548;28;20060;-82
2022/10/13 01:12:27;;;;;;;9.38;4.28;;;;;;;10.68;91.96;100534.38;5053384;28;20040;-81
2022/10/13 01:15:19;;;;;;;8.90;4.43;;;;;;;10.64;92.05;100535.38;5053313;28;20025;-83
2022/10/13 01:18:14;;;;;;;10.60;4.07;;;;;;;10.61;92.35;100520.47;5053244;28;20024;-82
2022/10/13 01:20:46;;;;;;;12.77;4.32;;;;;;;10.62;92.34;100518.56;5049970;28;20095;-82
2022/10/13 01:23:55;;;;;;;11.90;4.18;;;;;;;10.68;92.04;100526.22;5051806;28;20489;-82
2022/10/13 01:26:58;;;;;;;10.20;4.32;;;;;;;10.67;92.43;100518.38;5031952;28;20041;-81
2022/10/13 01:30:01;;;;;;;10.30;4.63;;;;;;;10.67;92.58;100519.16;5051673;28;20044;-82
2022/10/13 01:33:25;;;;;;;12.52;4.32;;;;;;;10.67;92.53;100512.94;5053000;28;20029;-81
2022/10/13 01:36:16;;;;;;;10.90;4.53;;;;;;;10.67;92.66;100519.16;5010870;28;20037;-82
2022/10/13 01:38:58;;;;;;;11.48;3.75;;;;;;;10.69;92.62;100516.13;5011057;28;20044;-81
2022/10/13 01:41:32;;;;;;;12.82;5.15;;;;;;;10.72;92.53;100513.53;5044741;28;20061;-82
2022/10/13 01:44:24;;;;;;;9.32;4.20;;;;;;;10.74;92.46;100507.75;5053090;28;20039;-82
2022/10/13 01:46:51;;;;;;;12.48;4.03;;;;;;;10.68;92.34;100496.25;5051393;28;20025;-82
2022/10/13 01:49:18;;;;;;;12.52;4.60;;;;;;;10.67;92.66;100496.59;5034714;28;20029;-81
2022/10/13 01:51:46;;;;;;;11.23;4.57;;;;;;;10.66;92.97;100498.50;5034440;28;20343;-81
2022/10/13 01:54:12;;;;;;;11.82;4.55;;;;;;;10.65;92.81;100498.84;5034617;28;20075;-82
2022/10/13 01:56:37;;;;;;;12.10;4.97;;;;;;;10.63;93.22;100495.66;5051064;28;20049;-81
2022/10/13 01:59:12;;;;;;;10.02;4.40;;;;;;;10.61;92.98;100497.91;5052362;28;20044;-82
2022/10/13 02:01:52;;;;;;;9.13;4.25;;;;;;;10.63;93.29;100498.38;5052443;28;20114;-82
2022/10/13 02:04:44;;;;;;;11.25;4.25;;;;;;;10.62;93.16;100494.84;5052320;28;20036;-81
2022/10/13 02:07:45;;;;;;;9.57;4.43;;;;;;;10.62;93.15;100494.84;5052677;28;20029;-82
2022/10/13 02:10:19;;;;;;;11.50;4.90;;;;;;;10.67;92.87;100491.94;5024362;28;20048;-83
2022/10/13 02:12:56;;;;;;;10.32;5.07;;;;;;;10.66;92.95;100484.09;5050705;28;20021;-82
2022/10/13 02:15:27;;;;;;;10.23;4.63;;;;;;;10.64;92.87;100480.91;5051371;28;20486;-83
2022/10/13 02:17:54;;;;;;;11.63;4.45;;;;;;;10.62;93.26;100478.50;5052021;28;20055;-83
2022/10/13 02:20:21;;;;;;;13.45;5.25;;;;;;;10.63;92.99;100477.38;5050956;28;20012;-81
2022/10/13 02:22:53;;;;;;;12.85;5.18;;;;;;;10.64;92.91;100480.91;5051961;28;20025;-81
2022/10/13 02:25:19;;;;;;;10.80;4.57;;;;;;;10.61;93.03;100476.13;5050742;28;20584;-82
2022/10/13 02:27:45;;;;;;;10.23;4.38;;;;;;;10.60;93.29;100485.41;5050911;28;20029;-82
2022/10/13 02:30:18;;;;;;;;;;;;;;;10.61;93.32;100476.91;5052447;28;20041;-83
2022/10/13 02:32:44;;;;;;;13.45;4.57;;;;;;;10.64;93.62;100478.97;5050128;28;19916;-83
2022/10/13 02:35:09;;;;;;;11.63;4.50;;;;;;;10.63;93.36;100485.56;5051974;28;20041;-82
2022/10/13 02:37:35;;;;;;;11.30;4.68;;;;;;;10.63;93.16;100480.09;5051203;28;20104;-82
2022/10/13 02:40:00;;;;;;;9.13;3.87;;;;;;;10.64;92.92;100484.44;5052190;28;20159;-82
2022/10/13 02:42:25;;;;;;;13.23;4.73;;;;;;;10.71;92.85;100489.34;5050673;28;20288;-82
2022/10/13 02:44:51;;;;;;;12.13;4.27;;;;;;;10.69;92.81;100489.69;5050528;28;20485;-82
2022/10/13 02:47:16;;;;;;;9.00;4.05;;;;;;;10.68;92.98;100479.91;5052321;28;20033;-82
2022/10/13 02:49:42;;;;;;;11.18;4.45;;;;;;;10.68;93.03;100481.84;5050027;28;20118;-83
2022/10/13 02:52:07;;;;;;;10.83;4.60;;;;;;;10.68;93.17;100487.28;5050740;28;20569;-81
2022/10/13 02:54:32;;;;;;;12.57;4.37;;;;;;;10.67;92.95;100474.81;5051942;28;20025;-81
2022/10/13 02:56:58;;;;;;;8.43;3.93;;;;;;;10.76;92.76;100475.59;5050108;28;20766;-82
2022/10/13 02:59:23;;;;;;;10.07;4.03;;;;;;;10.72;92.63;100480.06;5052326;28;20421;-83
2022/10/13 03:01:48;;;;;;;11.37;4.47;;;;;;;10.78;92.33;100476.84;5050338;28;20260;-81
2022/10/13 03:04:14;;;;;;;10.07;4.50;;;;;;;10.77;92.50;100477.97;5051699;28;20123;-82
2022/10/13 03:06:39;;;;;;;9.87;3.80;;;;;;;10.76;92.76;100481.03;5051759;28;20037;-82
2022/10/13 03:09:06;;;;;;;9.85;4.40;;;;;;;10.76;92.60;100473.66;5050476;28;20024;-82
2022/10/13 03:11:31;;;;;;;9.75;4.65;;;;;;;10.76;92.96;100470.13;5034037;28;20485;-83
2022/10/13 03:13:56;;;;;;;10.98;4.85;;;;;;;10.78;92.54;100467.88;5051753;28;20025;-83
2022/10/13 03:16:22;;;;;;;9.33;4.10;;;;;;;10.77;92.76;100466.28;5051837;28;20060;-82
2022/10/13 03:18:47;;;;;;;9.52;4.45;;;;;;;10.75;92.67;100460.34;5050450;28;20295;-82
2022/10/13 03:21:12;;;;;;;11.27;3.90;;;;;;;10.76;92.95;100456.50;5052300;28;20113;-83
2022/10/13 03:23:38;;;;;;;10.73;4.27;;;;;;;10.75;93.01;100446.72;5050401;28;20549;-83
2022/10/13 03:26:05;;;;;;;11.23;4.20;;;;;;;10.75;93.27;100454.88;5052261;28;20025;-83
2022/10/13 03:28:30;;;;;;;9.57;4.82;;;;;;;10.76;93.05;100451.88;5055302;28;20531;-81
2022/10/13 03:31:04;;;;;;;10.32;4.10;;;;;;;10.85;92.34;100459.97;5055161;28;20024;-81
2022/10/13 03:33:31;;;;;;;11.10;4.20;;;;;;;10.87;92.30;100449.56;5055223;28;20032;-82
2022/10/13 03:35:59;;;;;;;8.88;4.00;;;;;;;10.86;92.16;100458.84;5055310;28;20029;-82
2022/10/13 03:38:24;;;;;;;15.43;4.30;;;;;;;10.84;92.50;100453.72;5055108;28;20116;-82
2022/10/13 03:40:49;;;;;;;13.53;4.33;;;;;;;10.88;92.25;100459.31;5055215;28;20063;-82
2022/10/13 03:43:15;;;;;;;8.83;3.80;;;;;;;10.93;92.28;100442.81;5053835;28;20111;-81
2022/10/13 03:45:40;;;;;;;13.27;4.60;;;;;;;10.91;92.01;100447.75;5053202;28;20497;-81
2022/10/13 03:48:06;;;;;;;10.73;3.93;;;;;;;10.92;92.07;100445.84;5055422;28;20282;-83
2022/10/13 03:50:31;;;;;;;12.38;4.70;;;;;;;10.91;92.37;100431.41;5054846;28;20310;-82
2022/10/13 03:52:56;;;;;;;7.30;3.80;;;;;;;10.89;92.14;100433.66;5053863;28;20397;-82
2022/10/13 03:55:22;;;;;;;10.13;4.53;;;;;;;10.92;92.04;100424.03;5053487;28;20743;-81
2022/10/13 03:57:47;;;;;;;10.67;4.47;;;;;;;11.00;91.70;100431.38;5054480;28;20055;-82
2022/10/13 04:00:13;;;;;;;9.75;3.95;;;;;;;11.13;91.18;100433.88;5054361;28;20025;-81
2022/10/13 04:02:39;;;;;;;15.05;4.97;;;;;;;11.09;91.07;100427.50;5036247;28;20412;-81
2022/10/13 04:05:05;;;;;;;10.10;3.97;;;;;;;11.05;91.25;100431.97;5053579;28;20092;-82
2022/10/13 04:07:31;;;;;;;7.85;4.13;;;;;;;11.04;91.20;100429.59;5035974;28;20123;-81
2022/10/13 04:09:57;;;;;;;7.93;3.92;;;;;;;11.10;90.92;100426.34;5036297;28;20029;-81
2022/10/13 04:12:22;;;;;;;9.23;3.70;;;;;;;11.10;90.86;100420.09;5054138;28;20119;-82
2022/10/13 04:14:47;;;;;;;12.80;4.50;;;;;;;11.16;90.16;100416.06;5054401;28;20033;-81
2022/10/13 04:17:13;;;;;;;10.60;3.83;;;;;;;11.15;90.47;100417.97;5036412;28;20346;-81
2022/10/13 04:19:38;;;;;;;12.90;3.88;;;;;;;11.13;90.62;100416.72;5054666;28;20393;-82
2022/10/13 04:22:04;;;;;;;9.37;4.07;;;;;;;11.18;90.32;100415.72;5054418;28;20021;-82
2022/10/13 04:24:30;;;;;;;8.38;3.88;;;;;;;11.20;90.42;100418.91;5036398;28;20025;-84
2022/10/13 04:26:55;;;;;;;9.03;3.47;;;;;;;11.23;90.14;100415.50;5053816;28;20413;-83
2022/10/13 04:29:20;;;;;;;9.67;3.53;;;;;;;11.22;90.13;100414.72;5054131;28;20299;-84
2022/10/13 04:31:46;;;;;;;9.77;4.18;;;;;;;11.23;90.23;100410.06;5054082;28;20021;-82
2022/10/13 04:34:12;;;;;;;8.25;3.95;;;;;;;11.22;90.15;100408.47;5054040;28;20096;-84
2022/10/13 04:36:38;;;;;;;9.85;3.70;;;;;;;11.21;90.06;100413.13;5036260;28;20048;-82
2022/10/13 04:39:04;;;;;;;8.53;4.37;;;;;;;11.20;90.07;100411.53;5034848;28;20505;-84
2022/10/13 04:41:29;;;;;;;8.90;3.90;;;;;;;11.23;89.50;100405.41;5019733;28;20279;-84
2022/10/13 04:43:55;;;;;;;9.23;4.03;;;;;;;11.25;89.78;100405.06;5053666;28;20032;-84
2022/10/13 04:46:24;;;;;;;11.02;4.40;;;;;;;11.31;89.26;100404.56;5054159;28;20449;-84
2022/10/13 04:48:49;;;;;;;10.45;3.78;;;;;;;11.29;89.29;100414.19;5035873;28;20036;-84
2022/10/13 04:51:18;;;;;;;9.68;4.13;;;;;;;11.27;89.35;100400.91;5035619;28;20021;-84
2022/10/13 04:53:43;;;;;;;13.77;5.00;;;;;;;11.28;89.16;100401.72;5035590;28;20052;-83
2022/10/13 04:56:12;;;;;;;8.40;3.67;;;;;;;11.27;89.37;100395.47;5053331;28;20113;-84
2022/10/13 04:58:39;;;;;;;9.57;3.90;;;;;;;11.26;89.35;100388.41;5053256;28;20156;-82
2022/10/13 05:01:07;;;;;;;10.00;4.22;;;;;;;11.27;89.33;100389.22;5035390;28;20029;-83
2022/10/13 05:03:34;;;;;;;9.18;4.43;;;;;;;11.30;88.97;100394.00;5035179;28;20036;-83
2022/10/13 05:05:59;;;;;;;10.80;3.95;;;;;;;11.30;88.82;100388.53;5035092;28;20119;-83
2022/10/13 05:08:28;;;;;;;9.38;3.72;;;;;;;11.26;89.10;100393.06;5053007;28;20100;-84
2022/10/13 05:11:02;;;;;;;11.10;4.20;;;;;;;11.30;88.81;100396.72;5052960;28;20055;-81
2022/10/13 05:13:30;;;;;;;9.00;3.97;;;;;;;11.38;88.29;100391.19;5035519;28;20024;-81
2022/10/13 05:15:58;;;;;;;8.32;3.63;;;;;;;11.37;88.61;100383.34;5035521;28;20029;-82
2022/10/13 05:18:23;;;;;;;12.05;3.80;;;;;;;11.33;88.63;100385.94;5053366;28;20095;-81
2022/10/13 05:20:49;;;;;;;8.90;3.55;;;;;;;11.31;88.62;100385.47;5052681;28;20366;-81
2022/10/13 05:23:15;;;;;;;10.75;4.03;;;;;;;11.30;88.45;100380.34;5052964;28;20040;-81
2022/10/13 05:25:41;;;;;;;8.52;3.88;;;;;;;11.31;88.67;100390.13;5052947;28;20031;-83
2022/10/13 05:28:07;;;;;;;8.88;3.42;;;;;;;11.31;88.44;100373.78;5052808;28;20021;-83
2022/10/13 05:30:33;;;;;;;8.25;3.85;;;;;;;11.28;88.47;100383.41;5052508;28;20082;-82
2022/10/13 05:33:00;;;;;;;9.63;4.10;;;;;;;11.29;88.69;100381.50;5035204;28;20465;-84
2022/10/13 05:35:28;;;;;;;9.73;3.72;;;;;;;11.28;88.43;100380.69;5036412;28;20279;-82
2022/10/13 05:37:53;;;;;;;7.97;3.33;;;;;;;11.38;88.00;100393.13;5052272;28;20496;-81
2022/10/13 05:40:23;;;;;;;8.33;3.20;;;;;;;11.35;87.97;100388.34;5052589;28;20052;-81
2022/10/13 05:42:49;;;;;;;9.38;3.42;;;;;;;11.30;88.18;100374.91;5052707;28;20024;-80
2022/10/13 05:45:17;;;;;;;8.10;3.50;;;;;;;11.25;88.52;100380.53;5053154;28;20052;-80
2022/10/13 05:47:42;;;;;;;8.90;3.83;;;;;;;11.25;88.92;100378.59;5018506;28;20029;-80
2022/10/13 05:50:09;;;;;;;10.13;4.07;;;;;;;11.29;88.32;100376.84;5034598;28;20480;-81
2022/10/13 05:52:36;;;;;;;7.90;3.63;;;;;;;11.26;88.53;100379.44;5052674;28;20033;-81
2022/10/13 05:55:06;;;;;;;8.27;3.65;;;;;;;11.29;88.36;100363.22;5052438;28;20064;-80
2022/10/13 05:57:37;;;;;;;9.85;3.47;;;;;;;11.31;88.01;100368.31;5041807;28;20124;-80
2022/10/13 06:00:10;;;;;;;10.95;3.80;;;;;;;11.27;88.18;100372.84;5051931;28;20024;-80
2022/10/13 06:02:51;;;;;;;10.50;4.13;;;;;;;11.22;88.10;100371.09;5050352;28;20440;-81
2022/10/13 06:05:20;;;;;;;10.35;3.83;;;;;;;11.22;88.45;100375.75;5052345;28;20082;-82
2022/10/13 06:07:47;;;;;;;9.70;3.85;;;;;;;11.22;88.36;100364.84;5050926;28;20056;-80
2022/10/13 06:10:13;;;;;;;9.10;3.22;;;;;;;11.22;88.28;100368.38;5052355;28;20388;-80
2022/10/13 06:12:38;;;;;;;;;;;;;;;11.22;88.22;100362.94;5051046;28;20455;-81
2022/10/13 06:15:04;;;;;;;11.05;4.18;;;;;;;11.20;88.28;100357.00;5051941;28;20011;-81
2022/10/13 06:17:29;;;;;;;11.48;4.53;;;;;;;11.21;88.10;100363.25;5052207;28;20032;-81
2022/10/13 06:19:55;;;;;;;13.98;4.35;;;;;;;11.21;88.18;100352.34;5050772;28;20116;-81
2022/10/13 06:22:20;;;;;;;11.10;4.75;;;;;;;11.20;87.99;100356.22;5051833;28;20029;-82
2022/10/13 06:24:46;;;;;;;13.45;3.75;;;;;;;11.20;88.12;100354.28;5051451;28;20056;-81
2022/10/13 06:27:12;;;;;;;8.98;4.05;;;;;;;11.22;87.86;100354.75;5051758;28;20029;-81
2022/10/13 06:29:37;;;;;;;7.65;3.42;;;;;;;11.22;87.85;100353.94;5051384;28;20048;-82
2022/10/13 06:32:03;;;;;;;10.00;3.93;;;;;;;11.26;87.58;100349.44;5052020;28;20081;-82
2022/10/13 06:34:29;;;;;;;10.52;3.67;;;;;;;11.32;87.08;100346.19;5050289;28;20270;-84
2022/10/13 06:36:57;;;;;;;12.10;3.90;;;;;;;11.39;86.59;100343.69;5050645;28;20051;-82
2022/10/13 06:39:22;;;;;;;13.52;4.85;;;;;;;11.38;86.60;100341.31;5051831;28;20404;-82
2022/10/13 06:41:48;;;;;;;11.18;4.22;;;;;;;11.32;87.16;100332.56;5051355;28;20024;-83
2022/10/13 06:44:15;;;;;;;8.95;4.30;;;;;;;11.60;86.20;100338.22;5052166;28;20104;-83
2022/10/13 06:46:40;;;;;;;8.52;3.42;;;;;;;11.49;86.04;100339.78;5051604;28;20520;-81
2022/10/13 06:49:05;;;;;;;6.30;2.77;;;;;;;11.54;86.23;100345.00;5050320;28;20029;-82
2022/10/13 06:51:32;;;;;;;10.02;4.13;;;;;;;11.34;86.92;100341.19;5051316;28;20025;-82
2022/10/13 06:53:57;;;;;;;8.20;3.90;;;;;;;11.45;86.30;100347.84;5051798;28;20032;-82
2022/10/13 06:56:23;;;;;;;9.20;3.43;;;;;;;11.51;86.33;100351.16;5051325;28;20481;-82
2022/10/13 06:58:48;;;;;;;7.53;3.50;;;;;;;11.35;87.13;100342.78;5051451;28;20311;-81
2022/10/13 07:01:14;;;;;;;8.77;3.63;;;;;;;11.39;87.38;100346.44;5052360;28;20021;-82
2022/10/13 07:03:40;;;;;;;7.53;3.45;;;;;;;11.49;86.87;100356.13;5037804;28;20401;-82
2022/10/13 07:06:06;;;;;;;9.02;4.03;;;;;;;11.47;87.00;100352.16;5055096;28;20039;-82
2022/10/13 07:08:32;;;;;;;;;;;;;;;11.43;87.09;100349.31;5055600;28;20033;-82
2022/10/13 07:10:58;;;;;;;15.93;4.28;;;;;;;11.43;87.27;100349.31;5055378;28;19916;-82
2022/10/13 07:13:23;;;;;;;11.13;4.05;;;;;;;11.53;86.98;100354.31;5055245;28;20051;-82
2022/10/13 07:15:50;;;;;;;16.13;4.50;;;;;;;11.60;87.63;100360.06;5054411;28;20047;-82
2022/10/13 07:18:15;;;;;;;9.73;3.80;;;;;;;11.60;86.54;100357.31;5054999;28;20033;-82
2022/10/13 07:20:41;;;;;;;8.80;3.80;;;;;;;11.65;87.03;100354.38;5055578;28;20051;-81
2022/10/13 07:23:09;;;;;;;10.57;3.73;;;;;;;11.69;86.59;100357.22;5037580;28;20647;-83
2022/10/13 07:25:34;;;;;;;12.07;4.28;;;;;;;11.71;86.45;100355.75;5037834;28;20095;-82
2022/10/13 07:27:59;;;;;;;10.57;4.47;;;;;;;11.73;86.35;100358.94;5055100;28;20480;-82
2022/10/13 07:30:25;;;;;;;10.73;4.40;;;;;;;11.78;86.00;100359.88;5057255;28;20290;-85
2022/10/13 07:32:51;;;;;;;11.77;4.75;;;;;;;11.88;85.81;100351.28;5056382;28;20072;-84
2022/10/13 07:35:16;;;;;;;8.60;4.53;;;;;;;11.96;85.42;100355.88;5038429;28;20501;-86
2022/10/13 07:37:42;;;;;;;10.13;4.30;;;;;;;12.10;84.84;100353.63;5056168;28;20037;-83
2022/10/13 07:40:08;;;;;;;12.38;4.25;;;;;;;12.07;85.17;100353.47;5055008;28;20396;-85
2022/10/13 07:42:34;;;;;;;13.00;4.15;;;;;;;12.06;85.30;100366.34;5054109;28;20029;-85
2022/10/13 07:44:59;;;;;;;9.07;4.32;;;;;;;12.08;84.92;100349.63;5020762;28;20032;-86
2022/10/13 07:47:25;;;;;;;9.30;3.80;;;;;;;12.07;85.50;100357.00;5054519;28;20040;-84
2022/10/13 07:49:53;;;;;;;17.08;4.80;;;;;;;12.09;85.48;100345.75;5055964;28;20036;-84
2022/10/13 07:52:18;;;;;;;10.30;3.67;;;;;;;12.10;85.37;100350.91;5055436;28;20037;-83
2022/10/13 07:54:45;;;;;;;9.95;4.28;;;;;;;12.27;84.87;100356.16;5054989;28;20041;-85
2022/10/13 07:57:11;;;;;;;9.77;4.43;;;;;;;12.24;85.00;100354.06;5041856;28;20056;-85
2022/10/13 07:59:36;;;;;;;11.65;4.65;;;;;;;12.31;85.24;100359.00;5055980;28;20048;-86
2022/10/13 08:02:02;;;;;;;11.02;4.30;;;;;;;12.26;84.98;100353.72;5055741;28;20040;-84
2022/10/13 08:04:32;;;;;;;9.15;4.35;;;;;;;12.27;84.80;100356.16;5052994;28;20036;-84
2022/10/13 08:06:59;;;;;;;12.85;5.82;;;;;;;12.29;84.99;100362.06;5054346;28;20044;-84
2022/10/13 08:09:25;;;;;;;9.30;4.35;;;;;;;12.44;84.48;100360.59;5036957;28;20090;-85
2022/10/13 08:11:52;;;;;;;8.77;3.95;;;;;;;12.44;84.27;100355.13;5054516;28;20029;-84
2022/10/13 08:14:19;;;;;;;;;;;;;;;12.47;84.24;100353.66;5055901;28;20033;-86
2022/10/13 08:16:45;;;;;;;7.22;3.63;;;;;;;12.60;84.06;100352.53;5055435;28;20010;-83
2022/10/13 08:19:15;;;;;;;10.55;3.80;;;;;;;12.65;83.62;100353.06;5054357;28;20131;-85
2022/10/13 08:21:41;;;;;;;10.52;4.45;;;;;;;12.63;83.72;100346.38;5055748;28;20025;-83
2022/10/13 08:24:11;;;;;;;10.07;4.00;;;;;;;12.76;82.80;100350.66;5054587;28;20037;-82
2022/10/13 08:26:37;;;;;;;10.30;4.40;;;;;;;12.74;83.05;100352.94;5054883;28;20047;-82
2022/10/13 08:29:02;;;;;;;7.80;4.13;;;;;;;12.78;83.45;100358.53;5055245;28;20108;-82
2022/10/13 08:31:28;;;;;;;11.90;4.18;;;;;;;12.77;83.07;100352.28;5056321;28;20392;-83
2022/10/13 08:33:53;;;;;;;10.23;4.10;;;;;;;12.78;83.16;100345.66;5053584;28;20426;-81
2022/10/13 08:36:19;;;;;;;7.85;4.05;;;;;;;12.76;83.30;100352.59;5053676;28;20036;-83
2022/10/13 08:38:45;;;;;;;8.00;3.53;;;;;;;12.76;83.18;100358.06;5053141;28;20029;-82
2022/10/13 08:41:22;;;;;;;9.55;4.00;;;;;;;12.80;83.08;100357.03;5054059;28;20268;-84
2022/10/13 08:43:50;;;;;;;8.38;4.18;;;;;;;12.84;83.19;100357.94;5053925;28;20033;-84
2022/10/13 08:46:25;;;;;;;9.98;3.83;;;;;;;12.84;82.59;100362.63;5054357;28;20049;-83
2022/10/13 08:48:50;;;;;;;9.73;4.00;;;;;;;12.85;82.84;100356.81;5052483;28;20033;-81
2022/10/13 08:51:17;;;;;;;8.40;3.92;;;;;;;12.85;82.90;100362.28;5053300;28;20079;-83
2022/10/13 08:53:45;;;;;;;10.23;4.10;;;;;;;12.90;83.03;100363.97;5053881;28;20036;-81
2022/10/13 08:56:29;;;;;;;9.40;4.32;;;;;;;12.91;82.33;100354.63;5053836;28;20033;-83
2022/10/13 08:59:00;;;;;;;10.63;4.22;;;;;;;12.91;82.98;100357.34;5054360;28;20494;-85
2022/10/13 09:01:35;;;;;;;9.30;4.00;;;;;;;12.95;83.06;100350.88;5057706;28;20028;-84
2022/10/13 09:04:09;;;;;;;12.13;4.05;;;;;;;13.00;82.88;100352.56;5052969;28;20049;-86
2022/10/13 09:06:49;;;;;;;9.18;4.80;;;;;;;13.05;82.41;100343.31;5053439;28;20059;-85
2022/10/13 09:09:15;;;;;;;9.18;4.72;;;;;;;13.18;82.16;100329.31;5053191;28;20025;-85
2022/10/13 09:11:43;;;;;;;10.38;4.57;;;;;;;13.24;82.05;100332.59;5051841;28;20094;-84
2022/10/13 09:14:21;;;;;;;10.60;4.47;;;;;;;13.35;81.15;100332.91;5053137;28;20090;-84
2022/10/13 09:16:47;;;;;;;10.55;3.70;;;;;;;13.49;81.16;100334.09;5053178;28;20092;-84
2022/10/13 09:19:28;;;;;;;8.73;3.22;;;;;;;13.61;80.54;100332.47;5053053;28;20082;-84
2022/10/13 09:21:57;;;;;;;11.05;3.42;;;;;;;13.72;79.96;100328.06;5053063;28;20028;-84
2022/10/13 09:24:24;;;;;;;12.88;3.95;;;;;;;13.64;79.85;100329.81;5051110;28;20111;-84
2022/10/13 09:27:02;;;;;;;9.65;3.60;;;;;;;13.69;79.96;100326.81;5052605;28;20029;-84
2022/10/13 09:29:28;;;;;;;7.28;3.72;;;;;;;13.77;79.14;100328.59;5053183;28;20021;-84
2022/10/13 09:32:12;;;;;;;10.52;4.55;;;;;;;13.80;79.01;100327.91;5052867;28;20021;-84
2022/10/13 09:34:37;;;;;;;7.55;3.72;;;;;;;13.86;78.75;100320.22;5051723;28;20120;-84
2022/10/13 09:37:05;;;;;;;8.50;3.08;;;;;;;13.88;78.62;100320.66;5052568;28;20478;-85
2022/10/13 09:39:32;;;;;;;10.25;3.75;;;;;;;14.02;78.23;100321.03;5051466;28;20036;-83
2022/10/13 09:42:24;;;;;;;10.55;3.58;;;;;;;14.22;77.70;100318.38;5052312;28;20025;-84
2022/10/13 09:44:59;;;;;;;13.13;3.95;;;;;;;14.33;76.91;100327.66;5045683;28;20033;-85
2022/10/13 09:47:27;;;;;;;8.43;3.60;;;;;;;14.47;76.13;100322.56;5054317;28;20029;-85
2022/10/13 09:50:03;;;;;;;8.02;3.15;;;;;;;14.59;75.97;100321.63;5053010;28;20077;-85
2022/10/13 09:52:28;;;;;;;7.03;3.40;;;;;;;14.61;75.62;100317.41;5053441;28;20099;-84
2022/10/13 09:54:59;;;;;;;9.30;3.60;;;;;;;14.66;75.43;100322.59;5052974;28;20033;-86
2022/10/13 09:57:31;;;;;;;8.75;3.30;;;;;;;14.72;75.37;100318.41;5053277;28;20071;-85
2022/10/13 10:00:15;;;;;;;10.32;3.50;;;;;;;14.79;75.02;100327.97;5053032;28;20068;-84
2022/10/13 10:03:00;;;;;;;9.35;3.05;;;;;;;14.71;75.06;100314.09;5035540;28;20025;-86
2022/10/13 10:05:50;;;;;;;8.70;3.30;;;;;;;14.77;74.84;100311.06;5055927;28;20025;-87
2022/10/13 10:08:25;;;;;;;6.53;3.08;;;;;;;14.86;74.41;100315.22;5033295;28;20087;-86
2022/10/13 10:10:52;;;;;;;7.05;3.53;;;;;;;14.99;74.01;100304.91;5056502;28;20059;-85
2022/10/13 10:13:17;;;;;;;7.88;2.75;;;;;;;14.96;73.97;100311.91;5034825;28;20035;-86
2022/10/13 10:15:56;;;;;;;7.70;3.33;;;;;;;14.96;74.43;100300.16;5035468;28;20048;-84
2022/10/13 10:18:41;;;;;;;7.03;2.95;;;;;;;14.97;73.98;100296.25;5054866;28;20033;-86
2022/10/13 10:21:35;;;;;;;9.02;3.47;;;;;;;15.08;73.57;100302.75;5053573;28;20025;-87
2022/10/13 10:24:24;;;;;;;11.38;2.95;;;;;;;15.20;73.58;100294.38;5048049;28;20037;-86
2022/10/13 10:26:55;;;;;;;7.35;2.80;;;;;;;15.28;72.76;100287.88;5053607;28;20100;-83
2022/10/13 10:29:49;;;;;;;7.50;3.08;;;;;;;15.31;72.28;100283.63;5053102;28;20485;-86
2022/10/13 10:32:41;;;;;;;6.13;2.78;;;;;;;15.32;71.76;100283.25;5053580;28;20033;-84
2022/10/13 10:35:19;;;;;;;7.13;2.70;;;;;;;15.29;71.70;100286.72;5035221;28;20078;-85
2022/10/13 10:38:03;;;;;;;7.85;3.33;;;;;;;15.31;72.30;100292.66;5052760;28;20033;-84
2022/10/13 10:40:46;;;;;;;7.05;2.92;;;;;;;15.42;71.94;100279.13;5053227;28;20053;-84
2022/10/13 10:43:30;;;;;;;5.95;2.38;;;;;;;15.51;72.10;100276.16;5034435;28;20481;-80
2022/10/13 10:45:57;;;;;;;6.68;2.88;;;;;;;15.72;71.60;100273.81;5034649;28;20496;-84
2022/10/13 10:48:29;;;;;;;5.63;3.00;;;;;;;15.76;70.91;100277.41;5033879;28;20028;-82
2022/10/13 10:50:55;;;;;;;7.43;3.40;;;;;;;15.54;71.50;100278.97;5034722;28;20162;-85
2022/10/13 10:53:26;;;;;;;6.72;2.85;;;;;;;15.64;71.65;100288.59;5034369;28;20037;-83
2022/10/13 10:55:51;;;;;;;7.97;3.20;;;;;;;15.66;70.77;100280.00;5052311;28;20083;-81
2022/10/13 10:58:17;;;;;;;8.20;3.17;;;;;;;15.70;71.04;100278.09;5052578;28;20057;-82
2022/10/13 11:00:47;;;;;;;;;;;;;;;15.69;70.50;100280.06;5052970;28;20043;-82
2022/10/13 11:03:31;;;;;;;9.40;2.83;;;;;;;15.69;70.45;100262.78;5052906;28;19909;-86
2022/10/13 11:06:16;;;;;;;7.32;3.00;;;;;;;15.66;70.39;100258.03;5053302;28;20452;-83
2022/10/13 11:08:45;;;;;;;5.82;3.00;;;;;;;15.68;69.96;100256.50;5035084;28;20021;-85
2022/10/13 11:11:29;;;;;;;9.43;3.35;;;;;;;15.54;70.83;100258.97;5035361;28;20398;-85
2022/10/13 11:14:00;;;;;;;8.80;3.08;;;;;;;15.35;71.43;100257.84;5035349;28;20029;-83
2022/10/13 11:16:29;;;;;;;7.65;2.70;;;;;;;15.22;71.40;100248.16;5051807;28;20506;-84
2022/10/13 11:19:04;;;;;;;7.32;2.88;;;;;;;15.19;72.05;100243.41;5052686;28;20486;-84
2022/10/13 11:21:51;;;;;;;8.05;3.20;;;;;;;15.17;72.31;100248.47;5053068;28;20056;-84
2022/10/13 11:24:35;;;;;;;;;;;;;;;15.16;72.85;100249.63;5035219;28;20067;-83
2022/10/13 11:27:07;;;;;;;6.82;2.88;;;;;;;15.20;72.78;100255.19;5052140;28;20013;-84
2022/10/13 11:29:45;;;;;;;6.57;3.00;;;;;;;15.11;72.73;100249.13;5034529;28;20135;-84
2022/10/13 11:35:06;;;;;;;6.75;2.83;;;;;;;15.09;73.78;100251.44;5053121;28;20029;-83
2022/10/13 11:37:42;;;;;;;6.95;3.33;;;;;;;15.12;73.87;100246.03;5034761;28;20029;-84